Time;durP1;ratioP1;P1;durP2;ratioP2;P2;SDS_P1;SDS_P2;PMS_P1;PMS_P2;Temp;Humidity;BMP_temperature;BMP_pressure;BME280_temperature;BME280_humidity;BME280_pressure;Samples;Min_cycle;Max_cycle;Signal;HPM_P1;HPM_P2
2024/01/20 00:01:32;;;;;;;4.90;3.13;;;13.70;47.50;;;;;;5076705;28;20615;-74
2024/01/20 00:04:01;;;;;;;3.93;2.87;;;13.70;47.50;;;;;;5083415;28;20483;-76
2024/01/20 00:06:29;;;;;;;4.50;3.67;;;13.70;47.70;;;;;;5082957;28;20484;-76
2024/01/20 00:08:58;;;;;;;5.33;3.10;;;13.70;47.70;;;;;;5088609;28;20471;-76
2024/01/20 00:11:26;;;;;;;3.87;3.03;;;13.70;47.70;;;;;;5082128;28;20441;-76
2024/01/20 00:13:55;;;;;;;4.30;2.97;;;13.70;47.70;;;;;;5077856;28;20437;-76
2024/01/20 00:16:23;;;;;;;4.13;3.30;;;13.70;47.80;;;;;;5084433;28;20434;-77
2024/01/20 00:18:51;;;;;;;5.07;3.30;;;13.60;48.00;;;;;;5086591;28;20457;-76
2024/01/20 00:21:20;;;;;;;3.53;3.23;;;13.60;47.70;;;;;;5083724;28;20467;-76
2024/01/20 00:23:48;;;;;;;3.70;2.77;;;13.60;47.80;;;;;;5090184;28;20429;-76
2024/01/20 00:26:16;;;;;;;3.60;3.30;;;13.60;48.00;;;;;;5080548;28;20476;-77
2024/01/20 00:28:45;;;;;;;4.10;3.13;;;13.60;48.10;;;;;;5074058;28;20495;-77
2024/01/20 00:31:15;;;;;;;8.00;3.90;;;13.60;48.10;;;;;;5086005;28;20524;-76
2024/01/20 00:33:43;;;;;;;8.10;2.90;;;13.60;48.00;;;;;;5088571;28;20452;-76
2024/01/20 00:36:11;;;;;;;5.13;3.23;;;13.60;48.20;;;;;;5080584;28;20524;-76
2024/01/20 00:38:41;;;;;;;7.13;3.17;;;13.60;48.20;;;;;;5078554;22;20521;-78
2024/01/20 00:41:10;;;;;;;3.70;3.30;;;13.60;48.20;;;;;;5043827;28;20550;-77
2024/01/20 00:43:38;;;;;;;5.50;3.17;;;13.60;48.30;;;;;;5049171;28;20439;-76
2024/01/20 00:46:07;;;;;;;4.80;3.27;;;13.60;48.20;;;;;;5047945;28;20434;-79
2024/01/20 00:48:36;;;;;;;7.00;3.27;;;13.60;48.10;;;;;;5050073;28;20478;-79
2024/01/20 00:51:04;;;;;;;4.10;3.23;;;13.60;48.30;;;;;;5050168;28;20450;-79
2024/01/20 00:53:32;;;;;;;4.10;3.53;;;13.60;48.10;;;;;;5050079;28;20453;-77
2024/01/20 00:56:00;;;;;;;7.50;3.90;;;13.50;48.10;;;;;;5049584;28;20510;-77
2024/01/20 00:58:28;;;;;;;3.40;3.10;;;13.60;48.20;;;;;;5050751;28;20474;-79
2024/01/20 01:00:57;;;;;;;4.67;3.70;;;13.50;48.20;;;;;;5050501;28;20466;-79
2024/01/20 01:03:25;;;;;;;4.60;3.80;;;13.50;48.30;;;;;;5050151;28;20470;-77
2024/01/20 01:05:54;;;;;;;4.60;3.70;;;13.50;48.40;;;;;;5050726;28;20447;-78
2024/01/20 01:08:23;;;;;;;4.63;3.40;;;13.60;48.40;;;;;;5051604;28;20462;-77
2024/01/20 01:10:54;;;;;;;4.40;3.30;;;13.50;48.20;;;;;;5051150;28;20442;-77
2024/01/20 01:13:22;;;;;;;8.53;3.40;;;13.50;48.40;;;;;;5051829;28;20439;-76
2024/01/20 01:15:50;;;;;;;6.17;3.40;;;13.50;48.40;;;;;;5052349;28;20507;-78
2024/01/20 01:18:20;;;;;;;4.60;4.03;;;13.50;48.50;;;;;;5050532;28;20455;-77
2024/01/20 01:20:48;;;;;;;5.40;3.73;;;13.50;48.40;;;;;;5045963;28;20470;-77
2024/01/20 01:23:17;;;;;;;6.10;3.43;;;13.40;48.40;;;;;;5053196;28;20442;-76
2024/01/20 01:25:46;;;;;;;6.50;4.03;;;13.40;48.30;;;;;;5053646;28;20439;-80
2024/01/20 01:28:13;;;;;;;5.50;3.80;;;13.40;48.40;;;;;;5053801;28;20547;-78
2024/01/20 01:30:41;;;;;;;6.27;4.00;;;13.40;48.50;;;;;;5053640;28;20465;-77
2024/01/20 01:33:09;;;;;;;5.20;3.87;;;13.40;48.60;;;;;;5053337;28;20516;-77
2024/01/20 01:35:37;;;;;;;4.40;4.00;;;13.40;48.60;;;;;;5053732;28;20456;-79
2024/01/20 01:38:05;;;;;;;4.43;3.90;;;13.40;48.40;;;;;;5045439;28;20514;-78
2024/01/20 01:40:35;;;;;;;4.40;3.87;;;13.40;48.50;;;;;;5053795;28;20447;-77
2024/01/20 01:43:04;;;;;;;5.93;4.07;;;13.40;48.50;;;;;;5052796;28;20460;-78
2024/01/20 01:45:33;;;;;;;6.00;3.87;;;13.30;48.50;;;;;;5053631;28;20532;-78
2024/01/20 01:48:01;;;;;;;4.63;4.20;;;13.30;48.60;;;;;;5051562;28;20882;-79
2024/01/20 01:50:29;;;;;;;5.67;4.70;;;13.30;48.50;;;;;;5050943;28;20450;-77
2024/01/20 01:52:58;;;;;;;5.30;4.23;;;13.30;48.60;;;;;;5052822;28;20443;-78
2024/01/20 01:55:26;;;;;;;6.10;4.03;;;13.30;48.60;;;;;;5053160;28;20474;-78
2024/01/20 01:57:56;;;;;;;7.03;3.87;;;13.30;48.60;;;;;;5053069;28;20442;-78
2024/01/20 02:00:27;;;;;;;6.53;3.73;;;13.30;48.40;;;;;;5053248;28;20458;-78
2024/01/20 02:02:55;;;;;;;4.57;4.00;;;13.30;48.80;;;;;;5051758;28;20476;-78
2024/01/20 02:05:23;;;;;;;5.57;4.40;;;13.30;48.80;;;;;;5052863;28;20453;-78
2024/01/20 02:07:51;;;;;;;7.90;5.00;;;13.20;48.60;;;;;;5052650;28;21020;-79
2024/01/20 02:10:21;;;;;;;9.43;4.87;;;13.20;48.80;;;;;;5053216;28;20474;-77
2024/01/20 02:12:48;;;;;;;8.37;4.30;;;13.20;48.70;;;;;;5052197;28;20466;-78
2024/01/20 02:15:17;;;;;;;7.33;4.70;;;13.20;48.80;;;;;;5052921;28;20466;-80
2024/01/20 02:17:52;;;;;;;5.77;4.60;;;13.20;48.70;;;;;;5053491;28;20525;-77
2024/01/20 02:20:20;;;;;;;7.13;5.10;;;13.20;48.70;;;;;;5053817;28;20446;-78
2024/01/20 02:22:50;;;;;;;8.73;4.67;;;13.20;48.80;;;;;;5048018;28;20470;-78
2024/01/20 02:25:17;;;;;;;7.30;5.23;;;13.20;48.80;;;;;;5053389;28;20435;-78
2024/01/20 02:27:45;;;;;;;5.43;4.50;;;13.20;49.00;;;;;;5052650;28;20438;-77
2024/01/20 02:30:13;;;;;;;7.67;4.93;;;13.10;48.90;;;;;;5052939;28;20511;-78
2024/01/20 02:32:41;;;;;;;6.20;4.90;;;13.10;48.90;;;;;;5050851;28;20434;-77
2024/01/20 02:35:09;;;;;;;5.80;4.70;;;13.10;48.80;;;;;;5052506;28;20454;-76
2024/01/20 02:37:37;;;;;;;5.20;4.50;;;13.10;49.10;;;;;;5052419;28;20444;-78
2024/01/20 02:40:08;;;;;;;10.97;5.30;;;13.10;48.80;;;;;;5051662;28;20545;-78
2024/01/20 02:42:36;;;;;;;8.13;5.20;;;13.10;48.90;;;;;;5051278;28;20545;-78
2024/01/20 02:45:05;;;;;;;5.63;4.80;;;13.10;48.90;;;;;;5051296;28;20467;-79
2024/01/20 02:47:33;;;;;;;5.67;4.80;;;13.10;49.10;;;;;;5052391;28;20952;-78
2024/01/20 02:50:01;;;;;;;8.43;5.20;;;13.10;49.00;;;;;;5051841;28;20470;-78
2024/01/20 02:52:30;;;;;;;7.00;5.27;;;13.10;49.10;;;;;;5051444;28;20419;-79
2024/01/20 02:54:58;;;;;;;5.50;4.87;;;13.10;49.00;;;;;;5051645;28;20438;-80
2024/01/20 02:57:27;;;;;;;5.17;4.70;;;13.10;48.90;;;;;;5051622;28;20525;-78
2024/01/20 02:59:55;;;;;;;4.90;4.40;;;13.00;49.00;;;;;;5050908;28;20458;-79
2024/01/20 03:02:23;;;;;;;8.17;4.83;;;13.00;49.10;;;;;;5050759;28;20513;-77
2024/01/20 03:04:51;;;;;;;7.63;5.17;;;13.00;49.10;;;;;;5052479;28;20469;-79
2024/01/20 03:07:19;;;;;;;6.70;4.93;;;13.00;48.90;;;;;;5051812;28;20434;-78
2024/01/20 03:09:49;;;;;;;6.60;4.93;;;13.00;49.10;;;;;;5051939;28;20486;-78
2024/01/20 03:12:17;;;;;;;8.20;4.90;;;13.00;49.10;;;;;;5051235;28;20467;-78
2024/01/20 03:14:46;;;;;;;8.77;5.60;;;13.00;49.20;;;;;;5052296;28;20446;-78
2024/01/20 03:17:14;;;;;;;7.80;5.00;;;13.00;49.00;;;;;;5050594;28;20431;-77
2024/01/20 03:19:42;;;;;;;8.50;5.07;;;13.00;49.20;;;;;;5051501;28;20946;-78
2024/01/20 03:22:10;;;;;;;5.90;4.97;;;13.00;49.20;;;;;;5050642;28;20470;-77
2024/01/20 03:24:38;;;;;;;9.30;5.20;;;12.90;49.20;;;;;;5051315;28;20481;-80
2024/01/20 03:27:06;;;;;;;8.73;5.03;;;12.90;49.10;;;;;;5051919;28;20472;-79
2024/01/20 03:29:34;;;;;;;7.20;5.13;;;12.90;49.90;;;;;;5051744;28;20466;-79
2024/01/20 03:32:04;;;;;;;6.80;5.30;;;12.90;49.40;;;;;;5050558;28;20443;-78
2024/01/20 03:34:32;;;;;;;6.63;5.17;;;12.90;49.30;;;;;;5051910;28;20534;-79
2024/01/20 03:37:00;;;;;;;8.60;5.10;;;12.90;49.40;;;;;;5046733;28;20529;-77
2024/01/20 03:39:28;;;;;;;7.70;5.17;;;12.90;49.30;;;;;;5051128;28;20470;-78
2024/01/20 03:41:57;;;;;;;6.73;5.50;;;12.90;49.40;;;;;;5051174;28;20470;-78
2024/01/20 03:44:25;;;;;;;5.93;5.00;;;12.90;50.00;;;;;;5050925;28;20926;-80
2024/01/20 03:46:53;;;;;;;5.30;4.27;;;12.90;49.60;;;;;;5050618;28;20558;-79
2024/01/20 03:49:22;;;;;;;7.63;5.23;;;12.90;49.60;;;;;;5050483;28;20483;-78
2024/01/20 03:51:50;;;;;;;7.13;5.20;;;12.90;49.50;;;;;;5049919;28;20435;-78
2024/01/20 03:54:18;;;;;;;8.10;5.73;;;12.90;49.50;;;;;;5050863;28;20549;-79
2024/01/20 03:56:46;;;;;;;8.50;5.20;;;12.90;49.40;;;;;;5046892;28;20502;-79
2024/01/20 03:59:14;;;;;;;6.00;5.33;;;12.80;49.50;;;;;;5050635;28;20536;-79
2024/01/20 04:01:42;;;;;;;8.80;5.80;;;12.80;49.30;;;;;;5049812;28;20985;-79
2024/01/20 04:04:10;;;;;;;8.67;5.57;;;12.80;49.40;;;;;;5050650;28;20498;-79
2024/01/20 04:06:39;;;;;;;8.70;6.23;;;12.80;49.60;;;;;;5050654;28;20445;-79
2024/01/20 04:09:08;;;;;;;7.60;6.00;;;12.80;49.40;;;;;;5054350;28;20473;-77
2024/01/20 04:11:36;;;;;;;6.53;5.13;;;12.80;49.40;;;;;;5050435;28;20461;-77
2024/01/20 04:14:04;;;;;;;9.33;5.93;;;12.80;49.60;;;;;;5050692;28;20453;-78
2024/01/20 04:16:31;;;;;;;9.30;5.77;;;12.80;49.50;;;;;;5050613;28;20533;-77
2024/01/20 04:19:00;;;;;;;8.53;5.97;;;12.80;49.40;;;;;;5051333;28;20470;-78
2024/01/20 04:21:28;;;;;;;7.33;5.80;;;12.80;49.60;;;;;;5050292;28;20980;-77
2024/01/20 04:23:58;;;;;;;7.63;5.70;;;12.80;49.60;;;;;;5050066;28;20474;-77
2024/01/20 04:26:26;;;;;;;7.63;6.23;;;12.80;49.60;;;;;;5050347;28;20481;-78
2024/01/20 04:28:54;;;;;;;6.57;5.30;;;12.80;49.70;;;;;;5050644;28;20498;-77
2024/01/20 04:31:22;;;;;;;9.20;6.10;;;12.80;49.60;;;;;;5050335;28;20439;-77
2024/01/20 04:33:52;;;;;;;10.43;6.20;;;12.80;49.70;;;;;;5049713;28;20901;-77
2024/01/20 04:36:21;;;;;;;9.63;5.30;;;12.80;49.60;;;;;;5050087;28;20538;-79
2024/01/20 04:38:49;;;;;;;7.40;5.50;;;12.80;49.70;;;;;;5049867;28;20537;-77
2024/01/20 04:41:18;;;;;;;7.53;5.73;;;12.80;49.70;;;;;;5050323;28;20504;-77
2024/01/20 04:43:46;;;;;;;8.47;5.70;;;12.80;49.60;;;;;;5049238;28;20520;-79
2024/01/20 04:46:15;;;;;;;7.60;5.77;;;12.80;49.70;;;;;;5051459;28;20455;-77
2024/01/20 04:48:43;;;;;;;8.97;6.10;;;12.80;49.70;;;;;;5051659;28;20549;-77
2024/01/20 04:51:11;;;;;;;6.63;5.33;;;12.70;49.60;;;;;;5046580;28;20533;-76
2024/01/20 04:53:40;;;;;;;10.03;6.10;;;12.70;49.60;;;;;;5051450;28;20442;-77
2024/01/20 04:56:08;;;;;;;7.73;6.07;;;12.70;49.70;;;;;;5052247;28;20447;-77
2024/01/20 04:58:38;;;;;;;10.07;6.40;;;12.70;49.60;;;;;;5055474;28;20466;-77
2024/01/20 05:01:06;;;;;;;9.73;6.17;;;12.70;49.70;;;;;;5055093;28;20504;-76
2024/01/20 05:03:34;;;;;;;10.33;6.73;;;12.70;49.80;;;;;;5054788;28;20497;-76
2024/01/20 05:06:02;;;;;;;10.10;6.60;;;12.70;49.90;;;;;;5054981;28;20450;-77
2024/01/20 05:08:31;;;;;;;7.67;6.17;;;12.70;49.70;;;;;;5054996;28;20470;-76
2024/01/20 05:10:59;;;;;;;11.00;6.30;;;12.70;49.90;;;;;;5055184;28;20488;-78
2024/01/20 05:13:27;;;;;;;10.03;5.43;;;12.70;49.90;;;;;;5054760;28;20527;-77
2024/01/20 05:15:57;;;;;;;7.30;5.83;;;12.60;49.80;;;;;;5055178;28;20492;-77
2024/01/20 05:18:25;;;;;;;10.90;6.53;;;12.60;49.80;;;;;;5055617;28;20553;-77
2024/01/20 05:20:53;;;;;;;11.50;6.80;;;12.60;49.80;;;;;;5055926;28;20457;-77
2024/01/20 05:23:21;;;;;;;10.57;6.70;;;12.60;49.90;;;;;;5054640;28;20980;-79
2024/01/20 05:25:49;;;;;;;10.90;6.43;;;12.60;49.80;;;;;;5053877;28;20515;-77
2024/01/20 05:28:17;;;;;;;8.40;6.30;;;12.60;50.00;;;;;;5053781;28;20557;-76
2024/01/20 05:30:45;;;;;;;12.00;6.60;;;12.60;50.00;;;;;;5054292;28;20450;-77
2024/01/20 05:33:15;;;;;;;9.27;6.40;;;12.60;49.80;;;;;;5053847;28;20458;-79
2024/01/20 05:35:43;;;;;;;9.20;6.80;;;12.60;49.80;;;;;;5055197;28;20434;-76
2024/01/20 05:38:12;;;;;;;9.93;6.67;;;12.60;50.00;;;;;;5055027;28;20555;-77
2024/01/20 05:40:40;;;;;;;10.07;6.00;;;12.60;50.00;;;;;;5055005;28;21000;-77
2024/01/20 05:43:08;;;;;;;12.03;7.07;;;12.60;49.90;;;;;;5054536;28;21003;-78
2024/01/20 05:45:37;;;;;;;8.77;6.67;;;12.60;50.50;;;;;;5054895;28;20501;-78
2024/01/20 05:48:05;;;;;;;8.90;6.40;;;12.60;50.00;;;;;;5055333;28;20453;-77
2024/01/20 05:50:34;;;;;;;9.53;6.77;;;12.60;50.00;;;;;;5054674;28;20438;-77
2024/01/20 05:53:02;;;;;;;11.27;6.87;;;12.60;49.80;;;;;;5054378;28;20469;-79
2024/01/20 05:55:30;;;;;;;9.97;6.53;;;12.50;50.00;;;;;;5054624;28;20453;-79
2024/01/20 05:57:58;;;;;;;12.70;6.83;;;12.50;50.10;;;;;;5054797;28;20435;-77
2024/01/20 06:00:26;;;;;;;10.20;6.67;;;12.50;50.20;;;;;;5054935;28;20445;-78
2024/01/20 06:02:54;;;;;;;9.10;6.60;;;12.50;49.90;;;;;;5053835;28;20434;-78
2024/01/20 06:05:22;;;;;;;10.07;6.43;;;12.50;50.20;;;;;;5054228;28;20474;-78
2024/01/20 06:07:51;;;;;;;13.97;7.77;;;12.50;50.10;;;;;;5048400;28;20457;-77
2024/01/20 06:10:19;;;;;;;10.50;7.33;;;12.50;50.20;;;;;;5055232;28;20534;-77
2024/01/20 06:12:47;;;;;;;12.47;7.37;;;12.50;50.00;;;;;;5053934;28;20435;-77
2024/01/20 06:15:15;;;;;;;9.20;6.50;;;12.40;50.00;;;;;;5054345;28;20514;-77
2024/01/20 06:17:43;;;;;;;14.50;8.47;;;12.40;50.00;;;;;;5054179;28;20434;-77
2024/01/20 06:20:11;;;;;;;12.07;6.87;;;12.40;50.10;;;;;;5053699;28;20512;-76
2024/01/20 06:22:39;;;;;;;9.60;6.87;;;12.40;50.00;;;;;;5053703;28;20534;-77
2024/01/20 06:25:09;;;;;;;12.90;7.50;;;12.40;50.10;;;;;;5054003;28;20474;-79
2024/01/20 06:27:37;;;;;;;13.73;8.00;;;12.40;50.20;;;;;;5053484;28;20534;-78
2024/01/20 06:30:06;;;;;;;15.10;8.80;;;12.30;49.80;;;;;;5053949;28;20486;-77
2024/01/20 06:32:34;;;;;;;14.93;8.53;;;12.30;49.90;;;;;;5053343;28;20449;-78
2024/01/20 06:35:02;;;;;;;13.67;8.03;;;12.30;50.00;;;;;;5053828;28;20461;-77
2024/01/20 06:37:30;;;;;;;17.63;10.00;;;12.30;50.30;;;;;;5053628;28;20488;-78
2024/01/20 06:39:58;;;;;;;17.17;9.43;;;12.30;50.00;;;;;;5104109;22;20599;-75
2024/01/20 06:42:27;;;;;;;18.40;9.70;;;12.30;50.00;;;;;;5105157;28;20458;-74
2024/01/20 06:44:55;;;;;;;20.00;10.67;;;12.30;50.00;;;;;;5113301;28;20468;-77
2024/01/20 06:47:25;;;;;;;17.40;10.00;;;12.30;50.00;;;;;;5112917;28;20447;-77
2024/01/20 06:49:54;;;;;;;23.70;10.53;;;12.30;50.00;;;;;;5112251;28;20472;-77
2024/01/20 06:52:22;;;;;;;18.10;10.60;;;12.30;49.90;;;;;;5111895;28;20473;-77
2024/01/20 06:54:50;;;;;;;18.50;10.73;;;12.30;50.00;;;;;;5105167;28;20526;-77
2024/01/20 06:57:18;;;;;;;21.30;10.10;;;12.20;49.80;;;;;;5071691;28;20491;-77
2024/01/20 06:59:47;;;;;;;23.77;10.73;;;12.20;50.50;;;;;;5071968;28;20472;-77
2024/01/20 07:02:15;;;;;;;19.60;11.33;;;12.20;49.90;;;;;;5071293;28;20469;-76
2024/01/20 07:04:43;;;;;;;15.40;9.70;;;12.20;49.90;;;;;;5071410;28;20465;-77
2024/01/20 07:07:11;;;;;;;19.80;10.83;;;12.20;50.00;;;;;;5066746;28;20470;-76
2024/01/20 07:09:40;;;;;;;16.83;9.67;;;12.20;49.90;;;;;;5071242;28;20522;-77
2024/01/20 07:12:08;;;;;;;18.13;10.13;;;12.20;49.90;;;;;;5071187;28;20446;-77
2024/01/20 07:14:36;;;;;;;19.27;10.80;;;12.20;50.00;;;;;;5071182;28;20438;-77
2024/01/20 07:17:06;;;;;;;19.20;10.50;;;12.20;50.10;;;;;;5071304;28;20964;-77
2024/01/20 07:19:33;;;;;;;17.57;10.30;;;12.20;50.10;;;;;;5071333;28;20468;-77
2024/01/20 07:22:01;;;;;;;19.80;10.80;;;12.10;50.00;;;;;;5070326;28;20437;-77
2024/01/20 07:24:29;;;;;;;19.27;10.57;;;12.10;49.90;;;;;;5070892;28;20568;-76
2024/01/20 07:26:57;;;;;;;20.40;11.00;;;12.10;50.00;;;;;;5070641;28;20448;-77
2024/01/20 07:29:25;;;;;;;18.77;11.27;;;12.10;49.90;;;;;;5070688;28;20462;-74
2024/01/20 07:31:53;;;;;;;16.70;10.37;;;12.10;50.10;;;;;;5070400;28;20513;-78
2024/01/20 07:34:22;;;;;;;20.13;10.90;;;12.10;50.00;;;;;;5071060;28;20521;-77
2024/01/20 07:36:50;;;;;;;23.40;11.73;;;12.10;50.00;;;;;;5070735;28;20495;-76
2024/01/20 07:39:18;;;;;;;20.50;11.17;;;12.10;49.90;;;;;;5070547;28;20531;-77
2024/01/20 07:41:46;;;;;;;20.13;11.23;;;12.10;50.00;;;;;;5070216;28;20956;-77
2024/01/20 07:44:15;;;;;;;20.60;11.50;;;12.10;50.10;;;;;;5070742;28;20527;-77
2024/01/20 07:46:42;;;;;;;20.57;11.30;;;12.10;49.90;;;;;;5070350;28;20525;-77
2024/01/20 07:49:10;;;;;;;20.60;11.20;;;12.10;50.10;;;;;;5070695;28;20561;-78
2024/01/20 07:51:40;;;;;;;18.77;10.80;;;12.10;50.00;;;;;;5071430;28;20471;-77
2024/01/20 07:54:09;;;;;;;21.00;10.73;;;12.10;50.00;;;;;;5072976;28;20442;-79
2024/01/20 07:56:37;;;;;;;18.93;10.47;;;12.20;50.10;;;;;;5075330;28;20446;-78
2024/01/20 07:59:06;;;;;;;17.90;10.40;;;12.20;50.10;;;;;;5093289;28;20448;-78
2024/01/20 08:01:34;;;;;;;20.77;11.00;;;12.20;50.00;;;;;;5087315;28;20520;-76
2024/01/20 08:04:03;;;;;;;20.87;11.13;;;12.20;50.00;;;;;;5091436;28;20437;-78
2024/01/20 08:06:31;;;;;;;21.77;11.70;;;12.20;49.90;;;;;;5091409;28;20444;-78
2024/01/20 08:09:00;;;;;;;20.73;11.33;;;12.20;50.10;;;;;;5090279;28;20541;-77
2024/01/20 08:11:28;;;;;;;21.20;11.23;;;12.30;50.00;;;;;;5090298;28;20428;-77
2024/01/20 08:13:56;;;;;;;17.60;10.30;;;12.30;50.10;;;;;;5089278;28;20433;-78
2024/01/20 08:16:25;;;;;;;22.33;10.93;;;12.30;50.10;;;;;;5090612;28;20520;-77
2024/01/20 08:18:53;;;;;;;19.63;11.03;;;12.30;50.00;;;;;;5089748;28;20518;-78
2024/01/20 08:21:21;;;;;;;21.20;10.37;;;12.30;50.00;;;;;;5085182;28;20484;-78
2024/01/20 08:23:49;;;;;;;17.70;10.30;;;12.30;50.00;;;;;;5087115;28;20440;-77
2024/01/20 08:26:18;;;;;;;19.93;10.60;;;12.40;50.00;;;;;;5089147;28;20499;-77
2024/01/20 08:28:46;;;;;;;21.47;11.33;;;12.40;49.90;;;;;;5088120;28;20455;-78
2024/01/20 08:31:14;;;;;;;18.40;10.53;;;12.40;50.10;;;;;;5090647;28;20475;-78
2024/01/20 08:33:42;;;;;;;17.33;10.30;;;12.40;50.00;;;;;;5090901;28;20425;-78
2024/01/20 08:36:10;;;;;;;18.57;10.27;;;12.50;50.10;;;;;;5091417;28;20425;-79
2024/01/20 08:38:38;;;;;;;14.17;8.67;;;12.50;50.20;;;;;;5092834;28;20453;-78
2024/01/20 08:41:09;;;;;;;18.80;10.10;;;12.60;50.20;;;;;;5093616;28;20440;-78
2024/01/20 08:43:42;;;;;;;15.70;9.60;;;12.60;50.20;;;;;;5095854;28;20520;-78
2024/01/20 08:46:10;;;;;;;16.63;9.87;;;12.80;50.20;;;;;;5093741;28;20489;-79
2024/01/20 08:48:40;;;;;;;17.10;10.30;;;12.80;50.20;;;;;;5094633;28;20451;-78
2024/01/20 08:51:08;;;;;;;18.63;9.50;;;12.90;50.20;;;;;;5094516;28;20429;-78
2024/01/20 08:53:37;;;;;;;19.10;11.07;;;13.00;50.30;;;;;;5095888;28;20440;-78
2024/01/20 08:56:06;;;;;;;17.37;9.80;;;13.10;50.20;;;;;;5096056;28;20435;-78
2024/01/20 08:58:34;;;;;;;19.17;10.70;;;13.20;50.30;;;;;;5094971;28;20559;-77
2024/01/20 09:01:04;;;;;;;16.63;10.27;;;13.30;50.20;;;;;;5096344;28;20441;-79
2024/01/20 09:03:32;;;;;;;15.97;9.63;;;13.40;50.20;;;;;;5093078;28;20440;-80
2024/01/20 09:06:00;;;;;;;16.40;9.67;;;13.60;50.40;;;;;;5086953;28;20465;-78
2024/01/20 09:08:28;;;;;;;15.30;9.23;;;13.70;50.20;;;;;;5084377;28;20453;-78
2024/01/20 09:10:58;;;;;;;14.97;8.73;;;13.90;50.30;;;;;;5079474;28;20429;-78
2024/01/20 09:13:26;;;;;;;18.33;9.67;;;14.00;50.20;;;;;;5081290;28;20426;-78
2024/01/20 09:15:54;;;;;;;18.10;9.50;;;14.20;50.20;;;;;;5081428;28;20487;-78
2024/01/20 09:18:23;;;;;;;17.60;9.93;;;14.40;50.20;;;;;;5084423;28;20429;-78
2024/01/20 09:20:52;;;;;;;15.50;8.70;;;14.50;50.00;;;;;;5089420;28;20457;-77
2024/01/20 09:23:20;;;;;;;16.57;8.87;;;14.60;50.00;;;;;;5089033;28;20488;-78
2024/01/20 09:25:48;;;;;;;16.63;9.30;;;14.80;49.80;;;;;;5092873;28;20517;-78
2024/01/20 09:28:17;;;;;;;15.43;8.90;;;14.90;49.80;;;;;;5092951;28;20486;-77
2024/01/20 09:30:45;;;;;;;14.17;8.23;;;15.00;49.80;;;;;;5092939;28;20467;-78
2024/01/20 09:33:14;;;;;;;14.23;8.77;;;15.10;49.70;;;;;;5090351;28;20540;-78
2024/01/20 09:35:43;;;;;;;14.20;8.87;;;15.20;49.60;;;;;;5092334;28;20471;-78
2024/01/20 09:38:12;;;;;;;14.93;9.40;;;15.30;49.40;;;;;;5092933;28;20549;-77
2024/01/20 09:40:40;;;;;;;13.83;8.20;;;15.30;49.40;;;;;;5092197;28;20465;-78
2024/01/20 09:43:08;;;;;;;13.07;8.60;;;15.40;49.30;;;;;;5094208;28;20444;-78
2024/01/20 09:45:38;;;;;;;13.00;8.43;;;15.40;49.30;;;;;;5097363;28;20483;-78
2024/01/20 09:48:07;;;;;;;12.93;8.00;;;15.50;49.40;;;;;;5097746;28;20448;-78
2024/01/20 09:50:35;;;;;;;12.27;8.00;;;15.60;49.30;;;;;;5098175;28;20500;-77
2024/01/20 09:53:11;;;;;;;13.87;8.70;;;15.70;49.20;;;;;;5096996;28;20498;-77
2024/01/20 09:55:39;;;;;;;14.20;8.67;;;15.80;49.20;;;;;;5097839;28;20504;-77
2024/01/20 09:58:07;;;;;;;11.53;7.43;;;15.80;49.00;;;;;;5097594;28;20478;-77
2024/01/20 10:00:34;;;;;;;13.30;8.90;;;15.90;48.90;;;;;;5098187;28;20469;-77
2024/01/20 10:03:03;;;;;;;14.00;7.40;;;16.00;48.90;;;;;;5096486;28;20429;-77
2024/01/20 10:05:34;;;;;;;11.17;7.90;;;16.00;48.90;;;;;;5097305;28;20515;-77
2024/01/20 10:08:02;;;;;;;13.57;7.97;;;16.10;48.90;;;;;;5096051;28;20433;-77
2024/01/20 10:10:32;;;;;;;13.23;8.60;;;16.20;48.90;;;;;;5097942;28;20448;-77
2024/01/20 10:13:01;;;;;;;13.20;8.17;;;16.30;48.90;;;;;;5093258;28;20436;-77
2024/01/20 10:15:30;;;;;;;18.50;7.53;;;16.40;49.00;;;;;;5093975;28;20441;-77
2024/01/20 10:18:06;;;;;;;11.73;7.57;;;16.60;49.00;;;;;;5091653;28;20802;-77
2024/01/20 10:20:35;;;;;;;11.30;7.37;;;16.70;48.80;;;;;;5092841;28;20432;-77
2024/01/20 10:23:05;;;;;;;9.80;7.20;;;16.80;48.70;;;;;;5094471;28;20433;-77
2024/01/20 10:25:35;;;;;;;10.70;7.50;;;17.00;48.60;;;;;;5093172;28;20462;-77
2024/01/20 10:28:04;;;;;;;11.13;6.90;;;16.70;48.90;;;;;;5094472;28;20197;-78
2024/01/20 10:30:33;;;;;;;10.97;7.20;;;16.70;49.40;;;;;;5093772;28;20441;-76
2024/01/20 10:33:02;;;;;;;12.30;7.00;;;16.90;49.00;;;;;;5093839;28;20522;-78
2024/01/20 10:35:37;;;;;;;10.60;6.80;;;17.00;48.60;;;;;;5093199;28;20425;-79
2024/01/20 10:38:10;;;;;;;9.10;6.90;;;17.00;48.30;;;;;;5094409;28;20441;-78
2024/01/20 10:40:41;;;;;;;12.77;6.53;;;17.00;48.10;;;;;;5095764;28;20433;-78
2024/01/20 10:43:13;;;;;;;12.17;7.10;;;17.00;48.20;;;;;;5091928;28;20436;-78
2024/01/20 10:45:46;;;;;;;13.80;7.63;;;17.00;48.20;;;;;;5091918;28;20441;-78
2024/01/20 10:48:16;;;;;;;8.90;6.50;;;16.90;48.20;;;;;;5092594;28;20432;-78
2024/01/20 10:50:46;;;;;;;13.27;8.00;;;16.90;48.10;;;;;;5093240;28;20954;-79
2024/01/20 10:53:14;;;;;;;11.37;6.70;;;16.90;48.20;;;;;;5084204;28;20524;-78
2024/01/20 10:55:43;;;;;;;12.20;8.07;;;16.90;48.10;;;;;;5082108;28;20477;-78
2024/01/20 10:58:11;;;;;;;11.73;7.57;;;16.90;48.10;;;;;;5081064;28;20517;-76
2024/01/20 11:00:39;;;;;;;10.80;7.77;;;16.90;48.10;;;;;;5076606;28;20533;-78
2024/01/20 11:03:07;;;;;;;11.13;6.83;;;16.90;48.00;;;;;;5075812;28;20445;-77
2024/01/20 11:05:36;;;;;;;11.83;7.17;;;16.90;48.10;;;;;;5090511;28;20546;-78
2024/01/20 11:08:05;;;;;;;11.83;7.70;;;16.90;48.10;;;;;;5096685;28;20444;-77
2024/01/20 11:10:39;;;;;;;12.27;7.60;;;16.80;48.00;;;;;;5113902;28;20440;-77
2024/01/20 11:13:09;;;;;;;14.10;8.10;;;16.80;48.20;;;;;;5096852;28;20859;-76
2024/01/20 11:15:39;;;;;;;12.50;7.70;;;16.70;48.10;;;;;;5094075;28;20520;-78
2024/01/20 11:18:16;;;;;;;9.37;6.93;;;16.70;48.20;;;;;;5094583;28;20437;-77
2024/01/20 11:20:54;;;;;;;11.50;7.40;;;16.60;48.10;;;;;;5093515;28;20448;-77
2024/01/20 11:23:22;;;;;;;12.20;7.07;;;16.50;48.20;;;;;;5092692;28;20432;-76
2024/01/20 11:25:50;;;;;;;9.80;7.10;;;16.50;48.20;;;;;;5091722;28;20440;-74
2024/01/20 11:28:26;;;;;;;10.73;7.30;;;16.50;48.30;;;;;;5088245;28;20425;-76
2024/01/20 11:30:54;;;;;;;11.83;7.30;;;16.50;48.40;;;;;;5091101;28;20505;-77
2024/01/20 11:33:22;;;;;;;12.43;6.90;;;16.40;48.50;;;;;;5088160;28;20939;-77
2024/01/20 11:35:52;;;;;;;10.50;6.83;;;16.50;48.50;;;;;;5111862;28;20413;-76
2024/01/20 11:38:20;;;;;;;12.23;7.80;;;16.60;48.60;;;;;;5091709;28;20436;-76
2024/01/20 11:40:57;;;;;;;12.40;7.40;;;16.60;48.50;;;;;;5087960;28;20461;-76
2024/01/20 11:43:27;;;;;;;13.30;8.07;;;16.60;48.20;;;;;;5090923;28;20458;-76
2024/01/20 11:45:55;;;;;;;11.40;7.27;;;16.70;48.20;;;;;;5094473;28;20432;-76
2024/01/20 11:48:23;;;;;;;11.77;6.70;;;16.80;48.30;;;;;;5112474;28;20532;-76
2024/01/20 11:50:51;;;;;;;9.70;7.17;;;16.80;48.10;;;;;;5112995;28;20455;-77
2024/01/20 11:53:21;;;;;;;8.97;6.63;;;16.90;48.00;;;;;;5113165;28;20517;-76
2024/01/20 11:55:54;;;;;;;9.03;7.00;;;17.00;47.90;;;;;;5113063;28;20454;-77
2024/01/20 11:58:22;;;;;;;11.20;6.60;;;17.00;47.70;;;;;;5113049;28;20444;-78
2024/01/20 12:00:52;;;;;;;14.53;5.40;;;16.90;47.60;;;;;;5114583;28;20505;-77
2024/01/20 12:03:20;;;;;;;9.97;5.80;;;17.10;51.30;;;;;;5099762;28;20451;-76
2024/01/20 12:05:48;;;;;;;12.20;6.47;;;17.40;51.10;;;;;;5093341;28;20525;-77
2024/01/20 12:08:17;;;;;;;20.03;6.10;;;17.50;51.10;;;;;;5093940;28;20477;-79
2024/01/20 12:10:46;;;;;;;10.37;5.57;;;17.80;55.30;;;;;;5082524;28;20577;-74
2024/01/20 12:13:14;;;;;;;12.90;6.30;;;18.40;56.90;;;;;;5093984;28;20532;-74
2024/01/20 12:15:46;;;;;;;12.50;6.40;;;18.80;57.40;;;;;;5095880;28;20413;-78
2024/01/20 12:18:17;;;;;;;8.23;5.60;;;19.30;57.40;;;;;;5094110;28;20531;-78
2024/01/20 12:20:45;;;;;;;14.30;6.07;;;19.70;57.20;;;;;;5093595;28;20413;-78
2024/01/20 12:23:18;;;;;;;11.83;6.20;;;19.90;56.90;;;;;;5092733;28;20452;-77
2024/01/20 12:25:51;;;;;;;14.43;6.30;;;20.20;56.90;;;;;;5090644;28;20420;-80
2024/01/20 12:28:19;;;;;;;15.33;6.20;;;20.40;56.90;;;;;;5094161;28;20492;-79
2024/01/20 12:30:47;;;;;;;22.23;6.13;;;20.70;56.80;;;;;;5096679;28;20441;-79
2024/01/20 12:33:16;;;;;;;17.70;6.10;;;20.90;56.20;;;;;;5096143;28;20436;-79
2024/01/20 12:35:45;;;;;;;12.07;5.50;;;21.10;56.10;;;;;;5093541;28;20433;-80
2024/01/20 12:38:13;;;;;;;11.10;6.37;;;21.10;55.80;;;;;;5096516;28;20502;-79
2024/01/20 12:40:40;;;;;;;10.63;5.90;;;21.20;56.30;;;;;;5092266;28;20420;-79
2024/01/20 12:43:08;;;;;;;14.93;5.80;;;21.40;56.20;;;;;;5091256;22;20529;-79
2024/01/20 12:45:37;;;;;;;13.60;5.37;;;21.70;56.20;;;;;;5059441;28;20797;-78
2024/01/20 12:48:06;;;;;;;13.53;6.10;;;22.10;56.00;;;;;;5058021;28;20476;-77